createdAt,value
2023-05-15T00:00:18.571Z,53.96
2023-05-15T00:02:45.646Z,54.16
2023-05-15T00:05:14.141Z,54.53
2023-05-15T00:07:41.670Z,54.32
2023-05-15T00:10:08.938Z,54.74
2023-05-15T00:12:36.836Z,55.08
2023-05-15T00:15:03.921Z,55.59
2023-05-15T00:17:30.825Z,55.69
2023-05-15T00:19:59.168Z,55.69
2023-05-15T00:22:26.418Z,55.91
2023-05-15T00:24:55.788Z,55.94
2023-05-15T00:27:22.606Z,55.90
2023-05-15T00:29:49.446Z,56.13
2023-05-15T00:32:16.436Z,55.64
2023-05-15T00:34:45.487Z,55.62
2023-05-15T00:37:12.338Z,55.89
2023-05-15T00:39:39.558Z,55.91
2023-05-15T00:42:07.857Z,56.22
2023-05-15T00:44:36.140Z,55.88
2023-05-15T00:47:04.673Z,56.05
2023-05-15T00:49:35.392Z,56.29
2023-05-15T00:52:03.782Z,56.47
2023-05-15T00:54:30.796Z,56.28
2023-05-15T00:56:59.446Z,56.18
2023-05-15T00:59:30.615Z,56.65
2023-05-15T01:01:57.692Z,57.01
2023-05-15T01:04:24.630Z,57.09
2023-05-15T01:06:55.167Z,57.60
2023-05-15T01:09:24.937Z,57.71
2023-05-15T01:11:53.834Z,57.20
2023-05-15T01:14:20.682Z,57.54
2023-05-15T01:16:47.617Z,58.32
2023-05-15T01:19:15.005Z,58.27
2023-05-15T01:22:15.931Z,58.30
2023-05-15T01:25:08.242Z,58.31
2023-05-15T01:27:34.976Z,58.70
2023-05-15T01:30:33.558Z,58.68
2023-05-15T01:33:08.870Z,58.77
2023-05-15T01:36:17.139Z,58.91
2023-05-15T01:38:52.207Z,59.25
2023-05-15T01:41:43.073Z,58.81
2023-05-15T01:44:28.737Z,59.05
2023-05-15T01:46:59.864Z,59.00
2023-05-15T01:49:28.798Z,59.51
2023-05-15T01:52:19.002Z,59.11
2023-05-15T01:54:47.683Z,58.96
2023-05-15T01:57:15.326Z,59.17
2023-05-15T01:59:43.122Z,58.96
2023-05-15T02:02:11.559Z,59.42
2023-05-15T02:04:42.740Z,59.19
2023-05-15T02:07:10.201Z,59.23
2023-05-15T02:09:37.445Z,59.58
2023-05-15T02:12:05.979Z,59.76
2023-05-15T02:14:33.264Z,59.30
2023-05-15T02:17:00.121Z,59.81
2023-05-15T02:19:27.420Z,59.42
2023-05-15T02:21:54.350Z,59.83
2023-05-15T02:24:21.163Z,59.54
2023-05-15T02:26:47.894Z,59.15
2023-05-15T02:29:24.124Z,58.98
2023-05-15T02:32:14.735Z,59.25
2023-05-15T02:35:09.436Z,58.85
2023-05-15T02:37:39.509Z,58.84
2023-05-15T02:40:11.894Z,58.87
2023-05-15T02:42:41.105Z,58.61
2023-05-15T02:45:09.423Z,59.09
2023-05-15T02:47:37.241Z,58.83
2023-05-15T02:50:05.053Z,59.13
2023-05-15T02:52:36.134Z,59.22
2023-05-15T02:55:02.909Z,59.69
2023-05-15T02:57:31.262Z,59.61
2023-05-15T02:59:58.151Z,59.97
2023-05-15T03:02:24.910Z,59.96
2023-05-15T03:04:51.908Z,60.72
2023-05-15T03:07:18.925Z,60.35
2023-05-15T03:09:45.801Z,60.52
2023-05-15T03:12:12.551Z,60.54
2023-05-15T03:14:39.368Z,60.60
2023-05-15T03:17:06.266Z,59.71
2023-05-15T03:19:33.237Z,60.29
2023-05-15T03:22:02.436Z,60.07
2023-05-15T03:24:29.355Z,60.16
2023-05-15T03:26:56.175Z,60.14
2023-05-15T03:29:22.966Z,60.68
2023-05-15T03:31:49.935Z,60.06
2023-05-15T03:34:16.718Z,60.24
2023-05-15T03:36:43.537Z,60.59
2023-05-15T03:39:11.198Z,59.69
2023-05-15T03:41:38.147Z,60.08
2023-05-15T03:44:05.194Z,60.75
2023-05-15T03:46:32.312Z,60.24
2023-05-15T03:49:01.754Z,60.24
2023-05-15T03:51:28.659Z,60.36
2023-05-15T03:53:55.785Z,60.14
2023-05-15T03:56:23.183Z,60.58
2023-05-15T03:58:49.926Z,60.43
2023-05-15T04:01:16.616Z,60.21
2023-05-15T04:03:43.529Z,60.77
2023-05-15T04:06:10.372Z,60.45
2023-05-15T04:08:37.840Z,60.71
2023-05-15T04:11:06.992Z,60.37
2023-05-15T04:13:33.826Z,60.36
2023-05-15T04:16:04.446Z,60.82
2023-05-15T04:18:31.367Z,60.40
2023-05-15T04:20:58.224Z,61.15
2023-05-15T04:23:25.774Z,60.70
2023-05-15T04:25:53.917Z,60.51
2023-05-15T04:28:21.778Z,60.75
2023-05-15T04:30:48.779Z,61.03
2023-05-15T04:33:15.723Z,60.84
2023-05-15T04:35:42.653Z,60.65
2023-05-15T04:38:09.564Z,60.56
2023-05-15T04:40:36.486Z,60.46
2023-05-15T04:43:04.066Z,60.50
2023-05-15T04:45:30.788Z,59.90
2023-05-15T04:47:57.786Z,60.10
2023-05-15T04:50:24.961Z,60.46
2023-05-15T04:52:52.081Z,60.35
2023-05-15T04:55:18.825Z,60.15
2023-05-15T04:57:48.707Z,60.56
2023-05-15T05:00:18.384Z,60.26
2023-05-15T05:02:45.382Z,60.55
2023-05-15T05:05:14.744Z,60.91
2023-05-15T05:07:42.459Z,60.26
2023-05-15T05:10:09.802Z,60.38
2023-05-15T05:12:36.733Z,60.20
2023-05-15T05:15:03.946Z,59.94
2023-05-15T05:17:31.918Z,59.53
2023-05-15T05:19:58.684Z,59.20
2023-05-15T05:22:25.629Z,59.25
2023-05-15T05:24:52.553Z,58.90
2023-05-15T05:27:19.629Z,58.70
2023-05-15T05:29:46.788Z,58.29
2023-05-15T05:32:13.670Z,57.91
2023-05-15T05:34:40.668Z,57.81
2023-05-15T05:37:07.436Z,57.02
2023-05-15T05:39:34.379Z,57.39
2023-05-15T05:42:03.085Z,57.11
2023-05-15T05:44:30.310Z,56.99
2023-05-15T05:46:57.696Z,57.27
2023-05-15T05:49:24.686Z,57.15
2023-05-15T05:51:54.500Z,56.98
2023-05-15T05:54:22.160Z,56.72
2023-05-15T05:56:49.051Z,56.18
2023-05-15T05:59:16.633Z,56.00
2023-05-15T06:01:43.504Z,55.98
2023-05-15T06:04:10.285Z,55.26
2023-05-15T06:06:37.494Z,55.28
2023-05-15T06:09:06.187Z,54.81
2023-05-15T06:11:33.234Z,54.65
2023-05-15T06:14:00.086Z,54.08
2023-05-15T06:16:26.839Z,52.65
2023-05-15T06:18:55.916Z,51.59
2023-05-15T06:21:22.815Z,51.00
2023-05-15T06:23:49.670Z,50.45
2023-05-15T06:26:16.646Z,50.17
2023-05-15T06:28:43.607Z,50.09
2023-05-15T06:31:11.899Z,49.29
2023-05-15T06:33:38.694Z,48.54
2023-05-15T06:36:05.865Z,48.31
2023-05-15T06:38:32.605Z,48.04
2023-05-15T06:40:59.331Z,48.31
2023-05-15T06:43:26.076Z,48.11
2023-05-15T06:45:54.104Z,48.04
2023-05-15T06:48:20.859Z,47.99
2023-05-15T06:50:47.661Z,47.96
2023-05-15T06:53:14.749Z,47.76
2023-05-15T06:55:41.558Z,47.67
2023-05-15T06:58:08.449Z,47.12
2023-05-15T07:00:35.336Z,47.15
2023-05-15T07:03:02.108Z,46.72
2023-05-15T07:05:29.128Z,46.88
2023-05-15T07:07:56.041Z,47.16
2023-05-15T07:10:23.047Z,46.74
2023-05-15T07:12:49.887Z,46.62
2023-05-15T07:15:18.127Z,46.19
2023-05-15T07:17:45.020Z,45.33
2023-05-15T07:20:12.158Z,44.51
2023-05-15T07:22:48.349Z,43.80
2023-05-15T07:25:22.327Z,43.75
2023-05-15T07:27:49.151Z,43.22
2023-05-15T07:30:16.257Z,42.56
2023-05-15T07:32:43.099Z,42.39
2023-05-15T07:35:11.661Z,42.65
2023-05-15T07:37:46.260Z,42.13
2023-05-15T07:40:13.437Z,42.81
2023-05-15T07:42:40.542Z,43.10
2023-05-15T07:45:08.092Z,43.21
2023-05-15T07:47:36.341Z,42.91
2023-05-15T07:50:03.437Z,42.69
2023-05-15T07:52:30.937Z,42.70
2023-05-15T07:54:58.262Z,41.58
2023-05-15T07:57:26.453Z,41.20
2023-05-15T07:59:56.732Z,40.54
2023-05-15T08:02:24.264Z,40.58
2023-05-15T08:04:51.256Z,40.32
2023-05-15T08:07:18.357Z,39.96
2023-05-15T08:09:45.138Z,39.22
2023-05-15T08:12:17.658Z,39.09
2023-05-15T08:14:44.431Z,39.00
2023-05-15T08:17:11.148Z,35.63
2023-05-15T08:19:37.848Z,29.34
2023-05-15T08:22:04.778Z,27.07
2023-05-15T08:24:31.573Z,25.66
2023-05-15T08:26:58.300Z,25.81
2023-05-15T08:29:25.027Z,27.20
2023-05-15T08:31:52.191Z,27.95
2023-05-15T08:34:19.294Z,29.17
2023-05-15T08:36:45.905Z,29.54
2023-05-15T08:39:13.511Z,30.05
2023-05-15T08:41:56.385Z,29.55
2023-05-15T08:44:24.038Z,29.53
2023-05-15T08:46:53.062Z,30.17
2023-05-15T08:49:49.346Z,30.01
2023-05-15T08:52:16.452Z,30.25
2023-05-15T08:54:43.992Z,31.56
2023-05-15T08:57:11.666Z,29.78
2023-05-15T08:59:38.444Z,26.74
2023-05-15T09:02:05.620Z,22.39
2023-05-15T09:04:32.518Z,19.81
2023-05-15T09:07:01.753Z,17.26
2023-05-15T09:09:30.778Z,15.72
2023-05-15T09:11:59.859Z,14.41
2023-05-15T09:14:26.665Z,14.05
2023-05-15T09:16:53.836Z,13.47
2023-05-15T09:19:24.023Z,13.56
2023-05-15T09:21:50.806Z,12.91
2023-05-15T09:24:24.706Z,11.94
2023-05-15T09:27:06.589Z,11.83
2023-05-15T09:29:38.911Z,11.04
2023-05-15T09:32:10.856Z,10.26
2023-05-15T09:34:40.201Z,9.92
2023-05-15T09:37:09.685Z,10.12
2023-05-15T09:39:43.940Z,9.25
2023-05-15T09:42:12.438Z,9.28
2023-05-15T09:44:43.566Z,8.82
2023-05-15T09:47:11.407Z,8.70
2023-05-15T09:49:39.060Z,8.29
2023-05-15T09:52:10.020Z,7.66
2023-05-15T09:54:37.672Z,7.85
2023-05-15T09:57:13.076Z,7.79
2023-05-15T09:59:47.602Z,7.45
2023-05-15T10:02:23.564Z,8.08
2023-05-15T10:04:57.509Z,7.64
2023-05-15T10:07:29.410Z,7.76
2023-05-15T10:09:56.166Z,6.92
2023-05-15T10:12:24.888Z,7.03
2023-05-15T10:14:53.906Z,7.00
2023-05-15T10:17:20.798Z,6.97
2023-05-15T10:19:58.248Z,6.59
2023-05-15T10:22:29.823Z,7.89
2023-05-15T10:25:28.968Z,11.51
2023-05-15T10:27:57.063Z,12.45
2023-05-15T10:30:26.077Z,11.14
2023-05-15T10:32:53.818Z,9.52
2023-05-15T10:35:23.372Z,7.67
2023-05-15T10:37:50.457Z,6.54
2023-05-15T10:40:17.901Z,6.33
2023-05-15T10:42:47.743Z,6.00
2023-05-15T10:45:14.772Z,6.69
2023-05-15T10:47:44.295Z,8.48
2023-05-15T10:50:13.500Z,10.91
2023-05-15T10:52:40.882Z,11.45
2023-05-15T10:55:09.682Z,10.92
2023-05-15T10:57:37.155Z,12.12
2023-05-15T11:00:05.730Z,11.37
2023-05-15T11:02:38.977Z,11.94
2023-05-15T11:05:07.133Z,9.44
2023-05-15T11:07:33.907Z,7.78
2023-05-15T11:10:00.826Z,7.28
2023-05-15T11:12:59.944Z,6.87
2023-05-15T11:15:26.997Z,5.90
2023-05-15T11:18:04.700Z,5.61
2023-05-15T11:20:39.628Z,5.76
2023-05-15T11:23:07.091Z,5.54
2023-05-15T11:25:36.251Z,4.79
2023-05-15T11:28:07.692Z,4.77
2023-05-15T11:30:41.238Z,4.88
2023-05-15T11:33:11.224Z,5.09
2023-05-15T11:35:47.057Z,4.95
2023-05-15T11:38:18.469Z,4.22
2023-05-15T11:40:52.544Z,5.05
2023-05-15T11:43:32.532Z,5.61
2023-05-15T11:46:13.819Z,5.94
2023-05-15T11:48:47.694Z,5.89
2023-05-15T11:51:22.162Z,6.15
2023-05-15T11:53:50.973Z,6.89
2023-05-15T11:56:23.007Z,8.44
2023-05-15T11:58:51.071Z,9.05
2023-05-15T12:01:17.905Z,8.09
2023-05-15T12:03:47.830Z,8.25
2023-05-15T12:06:14.838Z,8.19
2023-05-15T12:08:45.169Z,9.81
2023-05-15T12:11:13.527Z,11.50
2023-05-15T12:13:40.500Z,13.38
2023-05-15T12:16:07.507Z,14.92
2023-05-15T12:18:34.705Z,14.99
2023-05-15T12:21:01.662Z,15.69
2023-05-15T12:23:28.849Z,16.64
2023-05-15T12:26:00.444Z,17.39
2023-05-15T12:28:27.977Z,17.65
2023-05-15T12:30:55.554Z,18.07
2023-05-15T12:33:23.562Z,19.10
2023-05-15T12:35:54.214Z,19.66
2023-05-15T12:38:22.857Z,21.51
2023-05-15T12:40:53.583Z,21.65
2023-05-15T12:43:23.675Z,22.24
2023-05-15T12:45:52.918Z,22.57
2023-05-15T12:48:20.212Z,22.76
2023-05-15T12:50:47.768Z,23.21
2023-05-15T12:53:16.390Z,22.74
2023-05-15T12:55:47.189Z,23.18
2023-05-15T12:58:18.821Z,22.97
2023-05-15T13:00:50.831Z,23.35
2023-05-15T13:03:21.300Z,24.03
2023-05-15T13:05:48.243Z,23.60
2023-05-15T13:08:17.866Z,23.55
2023-05-15T13:10:45.698Z,24.11
2023-05-15T13:13:12.816Z,24.06
2023-05-15T13:15:45.929Z,24.57
2023-05-15T13:18:18.526Z,24.56
2023-05-15T13:20:47.398Z,24.24
2023-05-15T13:23:24.397Z,24.38
2023-05-15T13:25:51.147Z,23.94
2023-05-15T13:28:17.833Z,24.58
2023-05-15T13:30:44.705Z,25.01
2023-05-15T13:33:12.726Z,25.92
2023-05-15T13:35:43.154Z,26.51
2023-05-15T13:38:11.911Z,26.20
2023-05-15T13:40:39.518Z,26.25
2023-05-15T13:43:06.909Z,25.88
2023-05-15T13:45:34.160Z,26.75
2023-05-15T13:48:04.547Z,26.13
2023-05-15T13:50:31.385Z,25.52
2023-05-15T13:52:58.216Z,24.75
2023-05-15T13:55:26.528Z,25.42
2023-05-15T13:57:54.984Z,24.75
2023-05-15T14:00:21.915Z,25.38
2023-05-15T14:02:48.819Z,25.43
2023-05-15T14:05:16.762Z,24.75
2023-05-15T14:07:44.627Z,24.49
2023-05-15T14:10:11.578Z,24.36
2023-05-15T14:12:38.583Z,24.11
2023-05-15T14:15:06.022Z,23.27
2023-05-15T14:17:32.998Z,23.29
2023-05-15T14:19:59.802Z,24.26
2023-05-15T14:22:26.619Z,23.82
2023-05-15T14:24:56.407Z,23.46
2023-05-15T14:27:23.051Z,23.37
2023-05-15T14:29:49.867Z,23.89
2023-05-15T14:32:17.353Z,24.55
2023-05-15T14:34:44.696Z,24.12
2023-05-15T14:37:12.667Z,24.09
2023-05-15T14:39:39.771Z,24.77
2023-05-15T14:42:07.218Z,24.60
2023-05-15T14:44:35.739Z,24.63
2023-05-15T14:47:06.645Z,23.77
2023-05-15T14:49:34.272Z,24.46
2023-05-15T14:52:01.169Z,24.68
2023-05-15T14:54:28.396Z,24.73
2023-05-15T14:56:57.445Z,23.64
2023-05-15T14:59:28.425Z,24.55
2023-05-15T15:01:55.346Z,24.05
2023-05-15T15:04:22.264Z,24.25
2023-05-15T15:06:49.470Z,24.83
2023-05-15T15:09:17.009Z,25.13
2023-05-15T15:11:45.584Z,25.44
2023-05-15T15:14:12.932Z,26.31
2023-05-15T15:16:39.801Z,26.62
2023-05-15T15:19:06.599Z,27.01
2023-05-15T15:21:34.621Z,27.66
2023-05-15T15:24:01.376Z,28.60
2023-05-15T15:26:28.184Z,28.27
2023-05-15T15:29:00.656Z,28.63
2023-05-15T15:31:31.772Z,28.68
2023-05-15T15:33:59.089Z,28.72
2023-05-15T15:36:25.992Z,29.15
2023-05-15T15:38:52.974Z,29.42
2023-05-15T15:41:21.427Z,29.52
2023-05-15T15:43:48.354Z,29.78
2023-05-15T15:46:15.506Z,29.75
2023-05-15T15:48:42.453Z,30.04
2023-05-15T15:51:09.259Z,30.22
2023-05-15T15:53:35.987Z,30.55
2023-05-15T15:56:02.864Z,31.21
2023-05-15T15:58:30.140Z,31.25
2023-05-15T16:00:57.934Z,31.81
2023-05-15T16:03:24.916Z,31.99
2023-05-15T16:05:51.878Z,31.64
2023-05-15T16:08:18.848Z,32.25
2023-05-15T16:10:48.263Z,31.79
2023-05-15T16:13:16.051Z,31.40
2023-05-15T16:15:43.001Z,30.69
2023-05-15T16:18:09.960Z,30.72
2023-05-15T16:20:37.256Z,30.83
2023-05-15T16:23:04.046Z,30.53
2023-05-15T16:25:30.774Z,30.39
2023-05-15T16:27:57.528Z,30.53
2023-05-15T16:30:33.870Z,30.08
2023-05-15T16:33:07.464Z,29.91
2023-05-15T16:35:36.780Z,30.31
2023-05-15T16:38:05.277Z,30.06
2023-05-15T16:40:32.194Z,30.03
2023-05-15T16:42:59.264Z,30.91
2023-05-15T16:45:26.314Z,30.98
2023-05-15T16:47:59.117Z,31.53
2023-05-15T16:50:26.181Z,31.71
2023-05-15T16:52:53.144Z,31.51
2023-05-15T16:55:20.236Z,31.38
2023-05-15T16:57:47.319Z,31.52
2023-05-15T17:00:17.040Z,31.75
2023-05-15T17:02:44.385Z,31.79
2023-05-15T17:05:11.903Z,31.79
2023-05-15T17:07:39.235Z,32.18
2023-05-15T17:10:07.813Z,31.96
2023-05-15T17:12:35.421Z,31.53
2023-05-15T17:15:02.954Z,31.01
2023-05-15T17:17:31.763Z,30.82
2023-05-15T17:19:59.336Z,30.61
2023-05-15T17:22:27.257Z,30.57
2023-05-15T17:24:55.060Z,30.76
2023-05-15T17:27:22.043Z,30.26
2023-05-15T17:29:48.998Z,30.21
2023-05-15T17:32:16.800Z,30.31
2023-05-15T17:34:45.014Z,30.75
2023-05-15T17:37:11.958Z,30.20
2023-05-15T17:39:38.764Z,30.63
2023-05-15T17:42:05.746Z,30.56
2023-05-15T17:44:32.504Z,30.66
2023-05-15T17:46:59.943Z,30.48
2023-05-15T17:49:26.753Z,31.12
2023-05-15T17:51:53.957Z,30.95
2023-05-15T17:54:21.060Z,30.90
2023-05-15T17:56:48.348Z,31.58
2023-05-15T17:59:15.096Z,31.29
2023-05-15T18:01:42.143Z,31.38
2023-05-15T18:04:09.352Z,31.50
2023-05-15T18:06:37.889Z,32.21
2023-05-15T18:09:05.458Z,32.21
2023-05-15T18:11:32.586Z,32.55
2023-05-15T18:13:59.667Z,33.21
2023-05-15T18:16:26.785Z,33.04
2023-05-15T18:18:53.823Z,32.89
2023-05-15T18:21:20.749Z,32.30
2023-05-15T18:23:47.517Z,32.24
2023-05-15T18:26:15.691Z,33.03
2023-05-15T18:28:42.528Z,33.00
2023-05-15T18:31:09.467Z,32.97
2023-05-15T18:33:36.372Z,32.70
2023-05-15T18:36:05.261Z,32.80
2023-05-15T18:38:33.512Z,32.82
2023-05-15T18:41:00.295Z,33.08
2023-05-15T18:43:27.058Z,32.83
2023-05-15T18:45:54.577Z,32.85
2023-05-15T18:48:21.327Z,33.26
2023-05-15T18:50:48.211Z,33.43
2023-05-15T18:53:15.182Z,33.12
2023-05-15T18:55:42.008Z,33.19
2023-05-15T18:58:08.992Z,33.02
2023-05-15T19:00:38.827Z,32.87
2023-05-15T19:03:10.516Z,33.19
2023-05-15T19:05:40.142Z,33.63
2023-05-15T19:08:09.315Z,33.77
2023-05-15T19:10:38.264Z,33.69
2023-05-15T19:13:06.543Z,33.76
2023-05-15T19:15:34.807Z,34.52
2023-05-15T19:18:02.394Z,36.02
2023-05-15T19:20:29.542Z,37.59
2023-05-15T19:22:56.303Z,38.00
2023-05-15T19:25:23.470Z,38.44
2023-05-15T19:27:50.182Z,39.27
2023-05-15T19:30:17.414Z,40.18
2023-05-15T19:32:44.509Z,40.73
2023-05-15T19:35:13.549Z,41.22
2023-05-15T19:37:41.106Z,42.02
2023-05-15T19:40:08.699Z,42.90
2023-05-15T19:42:36.195Z,43.79
2023-05-15T19:45:26.173Z,44.58
2023-05-15T19:47:53.210Z,44.80
2023-05-15T19:50:20.426Z,44.96
2023-05-15T19:52:47.598Z,45.60
2023-05-15T19:55:17.068Z,45.92
2023-05-15T19:57:45.053Z,46.31
2023-05-15T20:00:12.540Z,46.30
2023-05-15T20:02:41.338Z,46.91
2023-05-15T20:05:11.612Z,47.51
2023-05-15T20:07:38.370Z,47.24
2023-05-15T20:10:06.071Z,47.13
2023-05-15T20:12:34.550Z,47.57
2023-05-15T20:15:01.338Z,48.23
2023-05-15T20:17:28.191Z,48.34
2023-05-15T20:19:56.960Z,48.19
2023-05-15T20:22:24.633Z,48.21
2023-05-15T20:24:53.100Z,48.78
2023-05-15T20:27:19.763Z,48.91
2023-05-15T20:29:46.469Z,48.82
2023-05-15T20:32:13.829Z,48.79
2023-05-15T20:34:45.861Z,48.60
2023-05-15T20:37:13.593Z,48.12
2023-05-15T20:39:40.363Z,48.58
2023-05-15T20:42:07.256Z,48.60
2023-05-15T20:44:36.413Z,48.38
2023-05-15T20:47:04.013Z,48.00
2023-05-15T20:49:30.743Z,47.78
2023-05-15T20:51:58.597Z,47.41
2023-05-15T20:54:25.823Z,47.49
2023-05-15T20:56:55.044Z,47.58
2023-05-15T20:59:24.388Z,47.15
2023-05-15T21:01:54.405Z,46.73
2023-05-15T21:04:21.301Z,47.39
2023-05-15T21:06:49.078Z,46.87
2023-05-15T21:09:16.949Z,47.28
2023-05-15T21:11:43.715Z,46.65
2023-05-15T21:14:15.688Z,47.19
2023-05-15T21:16:42.498Z,46.89
2023-05-15T21:19:09.369Z,46.91
2023-05-15T21:21:36.346Z,46.67
2023-05-15T21:24:04.841Z,46.97
2023-05-15T21:26:31.627Z,46.56
2023-05-15T21:28:59.365Z,47.27
2023-05-15T21:31:28.054Z,47.17
2023-05-15T21:33:55.023Z,47.50
2023-05-15T21:36:22.229Z,47.75
2023-05-15T21:38:49.056Z,47.79
2023-05-15T21:41:17.140Z,47.85
2023-05-15T21:43:44.927Z,47.49
2023-05-15T21:46:11.674Z,48.00
2023-05-15T21:48:41.198Z,47.75
2023-05-15T21:51:09.213Z,47.92
2023-05-15T21:53:36.359Z,48.43
2023-05-15T21:56:03.787Z,48.90
2023-05-15T21:58:30.993Z,48.98
2023-05-15T22:00:57.934Z,48.92
2023-05-15T22:03:26.597Z,48.99
2023-05-15T22:05:53.632Z,49.26
2023-05-15T22:08:21.474Z,49.13
2023-05-15T22:10:54.432Z,49.23
2023-05-15T22:13:21.178Z,49.52
2023-05-15T22:15:48.026Z,49.20
2023-05-15T22:18:14.851Z,49.56
2023-05-15T22:20:44.540Z,49.73
2023-05-15T22:23:11.378Z,49.01
2023-05-15T22:25:38.100Z,49.65
2023-05-15T22:28:04.952Z,48.87
2023-05-15T22:30:31.974Z,49.09
2023-05-15T22:32:58.943Z,48.80
2023-05-15T22:35:26.089Z,48.45
2023-05-15T22:37:52.914Z,48.75
2023-05-15T22:40:19.705Z,48.10
2023-05-15T22:42:50.334Z,48.54
2023-05-15T22:45:18.567Z,48.44
2023-05-15T22:47:45.919Z,48.09
2023-05-15T22:50:12.846Z,48.37
2023-05-15T22:52:39.669Z,48.65
2023-05-15T22:55:07.374Z,47.84
2023-05-15T22:57:34.291Z,48.01
2023-05-15T23:00:01.165Z,48.70
2023-05-15T23:02:27.977Z,48.92
2023-05-15T23:04:54.677Z,48.86
2023-05-15T23:07:21.489Z,49.03
2023-05-15T23:09:48.191Z,49.06
2023-05-15T23:12:14.967Z,49.69
2023-05-15T23:14:41.669Z,49.51
2023-05-15T23:17:08.390Z,49.51
2023-05-15T23:19:35.068Z,50.03
2023-05-15T23:22:02.534Z,49.77
2023-05-15T23:24:29.416Z,50.37
2023-05-15T23:26:56.086Z,50.44
2023-05-15T23:29:22.779Z,50.84
2023-05-15T23:31:49.909Z,50.87
2023-05-15T23:34:17.238Z,51.27
2023-05-15T23:36:43.963Z,51.15
2023-05-15T23:39:11.758Z,52.12
2023-05-15T23:41:38.563Z,52.03
2023-05-15T23:44:05.152Z,52.12
2023-05-15T23:46:31.980Z,52.57
2023-05-15T23:48:58.725Z,52.69
2023-05-15T23:51:25.551Z,52.72
2023-05-15T23:53:52.314Z,53.42
2023-05-15T23:56:19.019Z,53.38
2023-05-15T23:58:45.669Z,53.76
